createdAt,value
2018-09-21T00:01:23.309Z,83.30
2018-09-21T00:03:56.829Z,83.20
2018-09-21T00:06:24.497Z,83.00
2018-09-21T00:08:53.252Z,83.30
2018-09-21T00:11:20.850Z,83.20
2018-09-21T00:13:48.979Z,83.30
2018-09-21T00:16:16.917Z,83.00
2018-09-21T00:18:44.452Z,83.60
2018-09-21T00:21:11.995Z,83.30
2018-09-21T00:23:39.714Z,83.30
2018-09-21T00:26:07.817Z,83.60
2018-09-21T00:28:35.549Z,83.70
2018-09-21T00:31:03.190Z,84.10
2018-09-21T00:33:30.803Z,84.40
2018-09-21T00:35:58.409Z,84.50
2018-09-21T00:38:25.967Z,85.00
2018-09-21T00:40:53.675Z,85.70
2018-09-21T00:43:21.247Z,85.50
2018-09-21T00:45:48.797Z,85.40
2018-09-21T00:48:16.307Z,85.80
2018-09-21T00:50:43.830Z,85.50
2018-09-21T00:53:11.367Z,85.60
2018-09-21T00:55:39.226Z,85.80
2018-09-21T00:58:06.829Z,85.40
2018-09-21T01:00:34.428Z,85.50
2018-09-21T01:03:01.955Z,85.50
2018-09-21T01:05:29.595Z,85.40
2018-09-21T01:07:57.178Z,85.40
2018-09-21T01:10:24.912Z,85.70
2018-09-21T01:12:52.955Z,85.90
2018-09-21T01:15:20.509Z,86.30
2018-09-21T01:17:48.236Z,86.50
2018-09-21T01:20:15.814Z,86.50
2018-09-21T01:22:43.422Z,86.80
2018-09-21T01:25:11.018Z,86.80
2018-09-21T01:27:52.790Z,87.00
2018-09-21T01:30:20.336Z,87.00
2018-09-21T01:32:48.071Z,87.50
2018-09-21T01:35:15.602Z,87.20
2018-09-21T01:37:43.172Z,86.80
2018-09-21T01:40:10.729Z,86.60
2018-09-21T01:42:38.324Z,86.50
2018-09-21T01:45:06.155Z,86.70
2018-09-21T01:47:34.205Z,87.00
2018-09-21T01:50:01.800Z,87.30
2018-09-21T01:52:29.444Z,87.10
2018-09-21T01:54:57.018Z,87.10
2018-09-21T01:57:24.894Z,87.00
2018-09-21T01:59:52.395Z,86.30
2018-09-21T02:02:19.943Z,86.20
2018-09-21T02:04:47.493Z,86.20
2018-09-21T02:07:15.157Z,85.70
2018-09-21T02:09:42.878Z,85.40
2018-09-21T02:12:10.651Z,84.80
2018-09-21T02:14:38.193Z,84.70
2018-09-21T02:17:05.773Z,84.50
2018-09-21T02:19:33.482Z,84.30
2018-09-21T02:22:01.496Z,84.30
2018-09-21T02:24:29.083Z,83.90
2018-09-21T02:26:56.606Z,83.40
2018-09-21T02:29:24.145Z,83.20
2018-09-21T02:31:51.720Z,82.90
2018-09-21T02:34:19.369Z,83.00
2018-09-21T02:36:46.926Z,82.90
2018-09-21T02:39:14.555Z,83.20
2018-09-21T02:41:42.281Z,83.40
2018-09-21T02:44:09.844Z,83.40
2018-09-21T02:46:37.594Z,83.30
2018-09-21T02:49:05.151Z,83.10
2018-09-21T02:51:33.125Z,83.20
2018-09-21T02:54:00.686Z,83.40
2018-09-21T02:56:28.272Z,83.70
2018-09-21T02:58:55.848Z,83.30
2018-09-21T03:01:23.419Z,83.50
2018-09-21T03:03:51.168Z,84.20
2018-09-21T03:06:18.945Z,84.30
2018-09-21T03:08:46.484Z,84.60
2018-09-21T03:11:14.048Z,84.20
2018-09-21T03:13:41.616Z,84.60
2018-09-21T03:16:09.390Z,84.10
2018-09-21T03:18:36.934Z,84.10
2018-09-21T03:21:04.512Z,83.80
2018-09-21T03:23:32.096Z,84.10
2018-09-21T03:25:59.601Z,84.60
2018-09-21T03:28:27.334Z,83.00
2018-09-21T03:30:54.979Z,82.30
2018-09-21T03:33:22.528Z,80.90
2018-09-21T03:35:50.123Z,80.40
2018-09-21T03:38:18.082Z,79.80
2018-09-21T03:40:45.726Z,79.20
2018-09-21T03:43:13.466Z,79.40
2018-09-21T03:45:41.119Z,79.70
2018-09-21T03:48:08.822Z,79.50
2018-09-21T03:50:36.400Z,78.80
2018-09-21T03:53:04.137Z,79.10
2018-09-21T03:55:31.668Z,78.90
2018-09-21T03:57:59.165Z,79.20
2018-09-21T04:00:26.764Z,79.40
2018-09-21T04:02:54.940Z,79.80
2018-09-21T04:05:22.566Z,80.40
2018-09-21T04:07:50.108Z,80.20
2018-09-21T04:10:17.851Z,79.70
2018-09-21T04:12:45.437Z,80.00
2018-09-21T04:15:13.155Z,79.20
2018-09-21T04:17:40.761Z,78.80
2018-09-21T04:20:08.347Z,79.20
2018-09-21T04:22:35.943Z,79.70
2018-09-21T04:25:04.423Z,79.10
2018-09-21T04:27:32.121Z,79.30
2018-09-21T04:29:59.732Z,78.80
2018-09-21T04:32:27.262Z,79.00
2018-09-21T04:34:55.058Z,79.00
2018-09-21T04:37:22.908Z,78.90
2018-09-21T04:39:50.480Z,79.30
2018-09-21T04:42:18.053Z,79.40
2018-09-21T04:44:45.916Z,78.60
2018-09-21T04:47:13.576Z,78.50
2018-09-21T04:49:41.469Z,78.40
2018-09-21T04:52:09.002Z,78.40
2018-09-21T04:54:36.541Z,77.80
2018-09-21T04:57:04.126Z,78.10
2018-09-21T04:59:31.750Z,78.50
2018-09-21T05:01:59.337Z,78.60
2018-09-21T05:04:26.874Z,78.60
2018-09-21T05:06:54.488Z,78.00
2018-09-21T05:09:22.283Z,78.40
2018-09-21T05:11:49.904Z,78.70
2018-09-21T05:14:17.510Z,78.80
2018-09-21T05:16:45.015Z,78.70
2018-09-21T05:19:12.693Z,78.20
2018-09-21T05:21:40.262Z,78.10
2018-09-21T05:24:08.263Z,77.80
2018-09-21T05:26:35.838Z,78.20
2018-09-21T05:29:03.515Z,78.50
2018-09-21T05:31:31.214Z,78.40
2018-09-21T05:33:58.881Z,78.40
2018-09-21T05:36:26.491Z,78.70
2018-09-21T05:38:54.064Z,78.60
2018-09-21T05:41:21.573Z,78.50
2018-09-21T05:43:49.117Z,77.90
2018-09-21T05:46:17.159Z,77.70
2018-09-21T05:48:44.752Z,77.30
2018-09-21T05:51:12.340Z,77.20
2018-09-21T05:53:39.972Z,77.10
2018-09-21T05:56:07.600Z,77.10
2018-09-21T05:58:35.397Z,76.70
2018-09-21T06:01:03.076Z,76.60
2018-09-21T06:03:30.604Z,75.70
2018-09-21T06:05:58.512Z,75.40
2018-09-21T06:08:26.696Z,75.20
2018-09-21T06:10:54.459Z,74.30
2018-09-21T06:13:22.015Z,74.00
2018-09-21T06:15:49.571Z,73.90
2018-09-21T06:18:17.609Z,72.20
2018-09-21T06:20:45.155Z,71.30
2018-09-21T06:23:12.726Z,71.20
2018-09-21T06:25:40.262Z,70.80
2018-09-21T06:28:07.951Z,69.40
2018-09-21T06:30:35.554Z,68.60
2018-09-21T06:33:03.296Z,67.80
2018-09-21T06:35:47.902Z,66.90
2018-09-21T06:38:16.806Z,65.70
2018-09-21T06:40:44.390Z,64.80
2018-09-21T06:43:11.971Z,63.20
2018-09-21T06:45:39.549Z,62.40
2018-09-21T06:48:07.890Z,61.20
2018-09-21T06:50:35.370Z,60.20
2018-09-21T06:53:02.922Z,59.50
2018-09-21T06:55:30.696Z,58.40
2018-09-21T06:57:58.465Z,57.10
2018-09-21T07:00:26.050Z,56.00
2018-09-21T07:02:53.628Z,56.20
2018-09-21T07:05:21.466Z,56.30
2018-09-21T07:07:49.026Z,55.50
2018-09-21T07:10:16.602Z,55.30
2018-09-21T07:12:44.182Z,54.90
2018-09-21T07:15:11.817Z,55.00
2018-09-21T07:17:40.069Z,54.90
2018-09-21T07:20:07.717Z,55.20
2018-09-21T07:22:35.226Z,55.30
2018-09-21T07:25:03.184Z,55.20
2018-09-21T07:27:31.029Z,55.10
2018-09-21T07:29:58.615Z,54.60
2018-09-21T07:38:14.831Z,52.90
2018-09-21T07:40:42.486Z,52.90
2018-09-21T07:43:10.053Z,52.80
2018-09-21T07:45:37.914Z,52.70
2018-09-21T07:48:05.716Z,52.50
2018-09-21T07:50:33.445Z,51.90
2018-09-21T07:53:00.939Z,52.00
2018-09-21T07:55:28.477Z,51.40
2018-09-21T07:57:56.040Z,50.70
2018-09-21T08:00:23.731Z,50.50
2018-09-21T08:02:51.374Z,49.90
2018-09-21T08:05:26.806Z,50.60
2018-09-21T08:07:54.404Z,50.90
2018-09-21T08:10:22.207Z,50.90
2018-09-21T08:12:49.814Z,50.80
2018-09-21T08:15:17.331Z,50.20
2018-09-21T08:17:44.907Z,49.80
2018-09-21T08:20:12.422Z,49.40
2018-09-21T08:22:40.211Z,49.80
2018-09-21T08:25:07.813Z,49.80
2018-09-21T08:27:35.460Z,50.40
2018-09-21T08:30:03.226Z,49.40
2018-09-21T08:32:30.810Z,49.60
2018-09-21T08:34:58.488Z,48.80
2018-09-21T08:37:26.087Z,48.30
2018-09-21T08:39:53.767Z,48.70
2018-09-21T08:42:21.449Z,48.60
2018-09-21T08:44:48.998Z,47.50
2018-09-21T08:47:17.110Z,47.60
2018-09-21T08:49:44.829Z,47.30
2018-09-21T08:52:12.727Z,47.20
2018-09-21T08:54:40.363Z,47.40
2018-09-21T08:57:07.962Z,47.50
2018-09-21T08:59:35.564Z,47.20
2018-09-21T09:02:03.501Z,47.60
2018-09-21T09:04:31.149Z,48.10
2018-09-21T09:06:58.675Z,48.50
2018-09-21T09:09:26.755Z,48.90
2018-09-21T09:11:54.550Z,49.10
2018-09-21T09:14:22.125Z,49.00
2018-09-21T09:16:50.039Z,49.40
2018-09-21T09:19:17.736Z,49.70
2018-09-21T09:21:45.339Z,49.30
2018-09-21T09:24:13.772Z,49.40
2018-09-21T09:26:41.477Z,49.40
2018-09-21T09:29:09.566Z,49.60
2018-09-21T09:31:37.466Z,49.10
2018-09-21T09:34:05.183Z,49.10
2018-09-21T09:36:32.820Z,49.00
2018-09-21T09:39:00.416Z,48.40
2018-09-21T09:41:28.247Z,48.30
2018-09-21T09:43:55.760Z,48.30
2018-09-21T09:46:23.875Z,48.00
2018-09-21T09:48:52.679Z,48.30
2018-09-21T09:51:20.756Z,47.70
2018-09-21T09:53:48.369Z,47.70
2018-09-21T09:56:16.060Z,46.50
2018-09-21T09:58:43.795Z,46.70
2018-09-21T10:01:11.981Z,46.60
2018-09-21T10:03:40.037Z,46.90
2018-09-21T10:06:07.947Z,46.60
2018-09-21T10:08:35.554Z,46.30
2018-09-21T10:11:04.607Z,45.40
2018-09-21T10:13:32.424Z,45.90
2018-09-21T10:15:59.959Z,45.60
2018-09-21T10:18:27.619Z,45.30
2018-09-21T10:20:55.938Z,45.30
2018-09-21T10:23:23.575Z,45.60
2018-09-21T10:25:51.138Z,45.40
2018-09-21T10:28:18.846Z,44.60
2018-09-21T10:30:46.555Z,43.50
2018-09-21T10:33:14.468Z,43.90
2018-09-21T10:35:42.881Z,42.90
2018-09-21T10:38:10.617Z,42.60
2018-09-21T10:40:38.245Z,42.10
2018-09-21T10:43:06.191Z,41.40
2018-09-21T10:45:33.954Z,41.20
2018-09-21T10:48:01.569Z,41.50
2018-09-21T10:50:29.243Z,40.50
2018-09-21T10:52:56.780Z,40.40
2018-09-21T10:55:24.526Z,40.90
2018-09-21T10:57:52.514Z,40.50
2018-09-21T11:00:20.551Z,40.60
2018-09-21T11:02:48.085Z,40.90
2018-09-21T11:05:15.651Z,41.00
2018-09-21T11:07:43.294Z,40.90
2018-09-21T11:10:11.246Z,40.50
2018-09-21T11:12:39.065Z,40.70
2018-09-21T11:15:06.671Z,40.70
2018-09-21T11:17:34.501Z,40.40
2018-09-21T11:20:02.394Z,40.70
2018-09-21T11:22:30.012Z,41.20
2018-09-21T11:24:57.531Z,41.40
2018-09-21T11:27:25.097Z,41.90
2018-09-21T11:29:52.612Z,42.10
2018-09-21T11:32:20.132Z,42.40
2018-09-21T11:34:47.663Z,43.00
2018-09-21T11:37:16.517Z,43.00
2018-09-21T11:39:44.088Z,43.70
2018-09-21T11:42:11.900Z,43.40
2018-09-21T11:44:39.493Z,43.60
2018-09-21T11:47:07.054Z,43.10
2018-09-21T11:49:34.563Z,43.50
2018-09-21T11:52:02.560Z,43.70
2018-09-21T11:54:30.523Z,43.70
2018-09-21T11:56:58.102Z,43.60
2018-09-21T11:59:26.048Z,43.60
2018-09-21T12:01:54.336Z,43.60
2018-09-21T12:04:22.705Z,43.90
2018-09-21T12:06:50.713Z,44.00
2018-09-21T12:09:18.531Z,44.30
2018-09-21T12:11:46.088Z,43.90
2018-09-21T12:14:13.620Z,44.50
2018-09-21T12:16:41.618Z,44.70
2018-09-21T12:19:11.070Z,45.10
2018-09-21T12:21:40.938Z,45.40
2018-09-21T12:24:08.810Z,45.70
2018-09-21T12:26:36.719Z,45.40
2018-09-21T12:29:04.802Z,45.40
2018-09-21T12:31:32.426Z,45.40
2018-09-21T12:34:00.449Z,44.40
2018-09-21T12:36:29.253Z,45.10
2018-09-21T12:38:58.145Z,44.60
2018-09-21T12:41:26.245Z,44.70
2018-09-21T12:43:55.918Z,44.40
2018-09-21T12:46:27.121Z,44.00
2018-09-21T12:48:57.398Z,44.50
2018-09-21T12:51:25.801Z,44.60
2018-09-21T12:53:54.949Z,44.20
2018-09-21T12:56:24.150Z,43.90
2018-09-21T12:58:52.599Z,44.00
2018-09-21T13:01:21.186Z,44.00
2018-09-21T13:03:49.640Z,43.70
2018-09-21T13:06:18.796Z,43.10
2018-09-21T13:08:47.617Z,42.20
2018-09-21T13:11:16.096Z,40.80
2018-09-21T13:13:44.467Z,41.00
2018-09-21T13:16:13.210Z,40.90
2018-09-21T13:18:41.847Z,41.20
2018-09-21T13:21:10.708Z,40.70
2018-09-21T13:23:38.762Z,40.70
2018-09-21T13:26:07.021Z,39.60
2018-09-21T13:28:35.164Z,39.30
2018-09-21T13:31:03.721Z,39.70
2018-09-21T13:33:32.096Z,40.10
2018-09-21T13:36:00.613Z,38.80
2018-09-21T13:38:28.840Z,38.30
2018-09-21T13:40:57.712Z,39.20
2018-09-21T13:43:25.927Z,38.50
2018-09-21T13:45:54.182Z,39.10
2018-09-21T13:48:22.218Z,38.20
2018-09-21T13:50:50.341Z,38.00
2018-09-21T13:53:18.771Z,38.60
2018-09-21T13:55:46.974Z,38.30
2018-09-21T13:58:14.840Z,38.90
2018-09-21T14:00:42.529Z,39.10
2018-09-21T14:03:10.158Z,39.30
2018-09-21T14:05:38.034Z,39.10
2018-09-21T14:08:05.840Z,39.50
2018-09-21T14:10:34.206Z,40.20
2018-09-21T14:13:02.521Z,39.40
2018-09-21T14:15:30.461Z,38.10
2018-09-21T14:17:58.292Z,37.40
2018-09-21T14:20:26.045Z,35.80
2018-09-21T14:22:54.084Z,35.20
2018-09-21T14:25:22.066Z,35.30
2018-09-21T14:27:49.684Z,34.80
2018-09-21T14:30:17.394Z,35.50
2018-09-21T14:32:45.780Z,35.60
2018-09-21T14:35:13.808Z,34.90
2018-09-21T14:37:41.730Z,34.80
2018-09-21T14:40:09.438Z,35.60
2018-09-21T14:42:37.819Z,35.90
2018-09-21T14:45:06.560Z,36.20
2018-09-21T14:47:34.283Z,36.30
2018-09-21T14:50:02.178Z,36.50
2018-09-21T14:52:29.773Z,36.90
2018-09-21T14:54:57.330Z,37.10
2018-09-21T14:57:24.915Z,37.70
2018-09-21T14:59:52.793Z,38.10
2018-09-21T15:02:20.336Z,38.30
2018-09-21T15:04:47.939Z,37.40
2018-09-21T15:07:15.622Z,36.90
2018-09-21T15:09:43.164Z,36.90
2018-09-21T15:12:10.792Z,37.00
2018-09-21T15:14:38.396Z,37.00
2018-09-21T15:17:06.000Z,36.70
2018-09-21T15:19:33.574Z,37.10
2018-09-21T15:22:01.266Z,37.40
2018-09-21T15:24:28.980Z,37.90
2018-09-21T15:26:57.307Z,38.40
2018-09-21T15:29:25.128Z,39.10
2018-09-21T15:31:52.947Z,39.30
2018-09-21T15:34:20.595Z,39.50
2018-09-21T15:36:48.204Z,40.90
2018-09-21T15:39:15.767Z,43.60
2018-09-21T15:41:43.298Z,46.10
2018-09-21T15:44:10.787Z,45.60
2018-09-21T15:46:38.435Z,47.80
2018-09-21T15:49:06.234Z,47.90
2018-09-21T15:51:34.744Z,49.10
2018-09-21T15:54:02.263Z,50.00
2018-09-21T15:56:29.902Z,51.80
2018-09-21T15:58:57.948Z,52.70
2018-09-21T16:01:25.540Z,52.10
2018-09-21T16:03:53.112Z,52.70
2018-09-21T16:06:20.747Z,52.90
2018-09-21T16:08:48.335Z,52.90
2018-09-21T16:11:15.956Z,53.10
2018-09-21T16:13:43.729Z,53.90
2018-09-21T16:16:11.408Z,53.70
2018-09-21T16:18:39.081Z,53.00
2018-09-21T16:21:06.721Z,54.40
2018-09-21T16:23:34.668Z,55.20
2018-09-21T16:26:02.216Z,55.10
2018-09-21T16:28:29.834Z,55.00
2018-09-21T16:30:57.496Z,56.30
2018-09-21T16:33:25.103Z,56.70
2018-09-21T16:35:52.793Z,58.30
2018-09-21T16:38:20.320Z,57.40
2018-09-21T16:40:47.856Z,57.80
2018-09-21T16:43:15.538Z,57.80
2018-09-21T16:45:43.023Z,58.50
2018-09-21T16:48:11.726Z,58.40
2018-09-21T16:50:39.473Z,58.80
2018-09-21T16:53:06.984Z,59.10
2018-09-21T16:55:34.717Z,61.20
2018-09-21T16:58:02.339Z,63.60
2018-09-21T17:00:29.824Z,63.90
2018-09-21T17:02:57.378Z,64.00
2018-09-21T17:05:25.376Z,64.30
2018-09-21T17:07:52.975Z,65.20
2018-09-21T17:10:20.540Z,67.20
2018-09-21T17:12:48.122Z,67.40
2018-09-21T17:15:15.712Z,69.00
2018-09-21T17:17:43.604Z,68.60
2018-09-21T17:20:11.230Z,69.20
2018-09-21T17:22:38.936Z,67.30
2018-09-21T17:25:07.299Z,69.10
2018-09-21T17:27:34.955Z,68.40
2018-09-21T17:30:02.614Z,70.40
2018-09-21T17:32:30.317Z,72.00
2018-09-21T17:34:57.894Z,76.70
2018-09-21T17:37:25.677Z,77.50
2018-09-21T17:39:53.587Z,77.80
2018-09-21T17:42:21.240Z,79.80
2018-09-21T17:44:48.859Z,82.40
2018-09-21T17:47:16.364Z,81.10
2018-09-21T17:49:43.892Z,83.10
2018-09-21T17:52:11.464Z,82.60
2018-09-21T17:54:39.331Z,84.70
2018-09-21T17:57:07.670Z,84.00
2018-09-21T17:59:35.147Z,83.70
2018-09-21T18:02:02.851Z,82.50
2018-09-21T18:04:30.555Z,84.30
2018-09-21T18:06:58.113Z,82.60
2018-09-21T18:09:25.727Z,84.70
2018-09-21T18:11:53.404Z,82.60
2018-09-21T18:14:20.957Z,84.40
2018-09-21T18:16:48.547Z,83.40
2018-09-21T18:19:16.569Z,83.00
2018-09-21T18:21:44.267Z,82.70
2018-09-21T18:24:11.836Z,79.80
2018-09-21T18:26:39.457Z,81.30
2018-09-21T18:29:07.074Z,83.40
2018-09-21T18:31:34.805Z,85.40
2018-09-21T18:34:02.396Z,84.70
2018-09-21T18:36:30.010Z,82.40
2018-09-21T18:38:57.624Z,82.00
2018-09-21T18:41:25.193Z,75.60
2018-09-21T18:43:54.587Z,74.40
2018-09-21T18:46:22.172Z,75.40
2018-09-21T18:48:49.756Z,71.30
2018-09-21T18:51:17.507Z,71.20
2018-09-21T18:53:45.167Z,70.80
2018-09-21T18:56:12.807Z,71.70
2018-09-21T18:58:40.541Z,70.70
2018-09-21T19:01:08.185Z,71.10
2018-09-21T19:03:38.977Z,73.20
2018-09-21T19:06:06.508Z,71.20
2018-09-21T19:08:34.078Z,70.50
2018-09-21T19:11:01.698Z,71.20
2018-09-21T19:13:29.263Z,70.90
2018-09-21T19:15:57.017Z,69.10
2018-09-21T19:18:24.567Z,70.90
2018-09-21T19:20:52.205Z,71.20
2018-09-21T19:23:19.793Z,73.50
2018-09-21T19:25:47.517Z,71.80
2018-09-21T19:28:15.282Z,72.80
2018-09-21T19:30:42.886Z,69.80
2018-09-21T19:33:10.716Z,70.30
2018-09-21T19:35:38.243Z,68.90
2018-09-21T19:38:05.862Z,70.20
2018-09-21T19:40:33.832Z,67.90
2018-09-21T19:43:01.423Z,67.70
2018-09-21T19:45:28.998Z,68.90
2018-09-21T19:47:56.567Z,68.80
2018-09-21T19:50:24.203Z,69.80
2018-09-21T19:52:52.291Z,68.70
2018-09-21T19:55:19.904Z,67.40
2018-09-21T19:57:47.468Z,67.10
2018-09-21T20:00:15.121Z,65.90
2018-09-21T20:02:42.719Z,66.10
2018-09-21T20:05:10.562Z,66.70
2018-09-21T20:07:38.155Z,66.60
2018-09-21T20:10:05.898Z,68.10
2018-09-21T20:12:33.700Z,66.50
2018-09-21T20:15:01.221Z,66.70
2018-09-21T20:17:28.832Z,66.50
2018-09-21T20:19:56.520Z,66.10
2018-09-21T20:22:24.094Z,67.00
2018-09-21T20:24:51.561Z,66.10
2018-09-21T20:27:19.157Z,65.30
2018-09-21T20:29:46.642Z,65.00
2018-09-21T20:32:19.800Z,65.00
2018-09-21T20:34:47.349Z,64.60
2018-09-21T20:37:14.998Z,64.00
2018-09-21T20:39:42.634Z,63.70
2018-09-21T20:42:10.247Z,63.20
2018-09-21T20:44:37.896Z,63.10
2018-09-21T20:47:05.401Z,64.60
2018-09-21T20:49:32.973Z,64.40
2018-09-21T20:52:00.563Z,62.80
2018-09-21T20:54:28.181Z,63.50
2018-09-21T20:56:55.844Z,63.30
2018-09-21T20:59:23.617Z,63.70
2018-09-21T21:01:51.158Z,62.60
2018-09-21T21:04:18.719Z,62.20
2018-09-21T21:06:46.628Z,63.30
2018-09-21T21:09:14.201Z,63.50
2018-09-21T21:11:41.801Z,62.80
2018-09-21T21:14:09.353Z,63.90
2018-09-21T21:16:36.928Z,63.70
2018-09-21T21:19:04.699Z,63.60
2018-09-21T21:21:32.348Z,64.10
2018-09-21T21:24:00.090Z,63.70
2018-09-21T21:26:27.695Z,63.70
2018-09-21T21:28:55.448Z,64.80
2018-09-21T21:31:23.034Z,62.70
2018-09-21T21:33:50.754Z,62.40
2018-09-21T21:36:18.258Z,61.90
2018-09-21T21:38:46.072Z,62.20
2018-09-21T21:41:13.631Z,63.90
2018-09-21T21:43:41.246Z,62.70
2018-09-21T21:46:08.801Z,63.20
2018-09-21T21:48:36.331Z,62.70
2018-09-21T21:51:03.897Z,62.80
2018-09-21T21:53:31.523Z,62.00
2018-09-21T21:55:59.198Z,61.10
2018-09-21T21:58:26.726Z,62.30
2018-09-21T22:00:59.999Z,62.20
2018-09-21T22:03:27.547Z,62.10
2018-09-21T22:05:55.441Z,62.80
2018-09-21T22:08:23.118Z,63.20
2018-09-21T22:10:50.756Z,63.00
2018-09-21T22:13:23.794Z,63.10
2018-09-21T22:15:51.359Z,63.70
2018-09-21T22:18:18.998Z,63.60
2018-09-21T22:20:46.945Z,66.70
2018-09-21T22:23:14.503Z,64.10
2018-09-21T22:25:42.239Z,63.90
2018-09-21T22:28:09.915Z,64.00
2018-09-21T22:30:37.463Z,65.80
2018-09-21T22:33:05.312Z,65.70
2018-09-21T22:35:33.081Z,64.10
2018-09-21T22:38:00.631Z,63.70
2018-09-21T22:40:28.392Z,64.10
2018-09-21T22:42:55.975Z,64.70
2018-09-21T22:45:23.597Z,62.90
2018-09-21T22:47:51.107Z,62.50
2018-09-21T22:50:18.620Z,63.30
2018-09-21T22:52:46.151Z,62.10
2018-09-21T22:55:13.751Z,64.00
2018-09-21T22:57:41.339Z,63.00
2018-09-21T23:00:08.956Z,62.70
2018-09-21T23:02:36.582Z,62.80
2018-09-21T23:05:04.264Z,63.20
2018-09-21T23:07:32.245Z,63.90
2018-09-21T23:10:00.295Z,63.70
2018-09-21T23:12:27.900Z,64.80
2018-09-21T23:14:55.425Z,63.40
2018-09-21T23:17:23.058Z,64.10
2018-09-21T23:19:50.976Z,64.10
2018-09-21T23:22:18.638Z,64.90
2018-09-21T23:24:46.190Z,66.10
2018-09-21T23:27:13.715Z,65.80
2018-09-21T23:29:41.255Z,65.60
2018-09-21T23:32:08.975Z,65.60
2018-09-21T23:34:36.508Z,67.10
2018-09-21T23:37:04.439Z,66.70
2018-09-21T23:39:32.042Z,66.90
2018-09-21T23:41:59.639Z,67.10
2018-09-21T23:44:27.333Z,66.80
2018-09-21T23:46:54.939Z,66.90
2018-09-21T23:49:22.492Z,67.60
2018-09-21T23:51:50.148Z,68.50
2018-09-21T23:54:17.700Z,68.80
2018-09-21T23:56:45.412Z,69.20
2018-09-21T23:59:13.058Z,69.90
